sensor_id;sensor_type;location;lat;lon;timestamp;P1;durP1;ratioP1;P2;durP2;ratioP2
76171;SDS011;64929;51.178;4.138;2023-05-10T00:01:05;7.43;;;3.95;;
76171;SDS011;64929;51.178;4.138;2023-05-10T00:03:31;10.35;;;4.13;;
76171;SDS011;64929;51.178;4.138;2023-05-10T00:05:57;9.13;;;4.60;;
76171;SDS011;64929;51.178;4.138;2023-05-10T00:08:22;9.20;;;4.10;;
76171;SDS011;64929;51.178;4.138;2023-05-10T00:10:48;9.05;;;4.07;;
76171;SDS011;64929;51.178;4.138;2023-05-10T00:13:14;7.35;;;3.97;;
76171;SDS011;64929;51.178;4.138;2023-05-10T00:15:40;9.70;;;4.10;;
76171;SDS011;64929;51.178;4.138;2023-05-10T00:18:06;6.72;;;4.13;;
76171;SDS011;64929;51.178;4.138;2023-05-10T00:20:31;6.85;;;3.67;;
76171;SDS011;64929;51.178;4.138;2023-05-10T00:22:57;8.45;;;4.43;;
76171;SDS011;64929;51.178;4.138;2023-05-10T00:25:23;7.18;;;4.10;;
76171;SDS011;64929;51.178;4.138;2023-05-10T00:27:48;8.10;;;4.30;;
76171;SDS011;64929;51.178;4.138;2023-05-10T00:30:26;8.95;;;4.82;;
76171;SDS011;64929;51.178;4.138;2023-05-10T00:32:52;6.82;;;4.28;;
76171;SDS011;64929;51.178;4.138;2023-05-10T00:35:18;11.93;;;5.55;;
76171;SDS011;64929;51.178;4.138;2023-05-10T00:37:43;10.10;;;4.93;;
76171;SDS011;64929;51.178;4.138;2023-05-10T00:40:09;8.52;;;4.60;;
76171;SDS011;64929;51.178;4.138;2023-05-10T00:42:35;11.05;;;5.47;;
76171;SDS011;64929;51.178;4.138;2023-05-10T00:45:01;9.75;;;5.57;;
76171;SDS011;64929;51.178;4.138;2023-05-10T00:47:27;8.88;;;5.22;;
76171;SDS011;64929;51.178;4.138;2023-05-10T00:49:53;12.25;;;6.20;;
76171;SDS011;64929;51.178;4.138;2023-05-10T00:52:20;14.75;;;6.43;;
76171;SDS011;64929;51.178;4.138;2023-05-10T00:54:48;12.52;;;6.05;;
76171;SDS011;64929;51.178;4.138;2023-05-10T00:57:15;11.93;;;6.13;;
76171;SDS011;64929;51.178;4.138;2023-05-10T00:59:42;13.02;;;6.13;;
76171;SDS011;64929;51.178;4.138;2023-05-10T01:02:08;11.00;;;6.60;;
76171;SDS011;64929;51.178;4.138;2023-05-10T01:04:33;20.38;;;6.90;;
76171;SDS011;64929;51.178;4.138;2023-05-10T01:07:00;10.63;;;6.30;;
76171;SDS011;64929;51.178;4.138;2023-05-10T01:09:26;16.00;;;6.53;;
76171;SDS011;64929;51.178;4.138;2023-05-10T01:11:52;14.95;;;6.65;;
76171;SDS011;64929;51.178;4.138;2023-05-10T01:14:19;12.52;;;6.25;;
76171;SDS011;64929;51.178;4.138;2023-05-10T01:16:46;12.13;;;6.35;;
76171;SDS011;64929;51.178;4.138;2023-05-10T01:19:18;12.82;;;6.43;;
76171;SDS011;64929;51.178;4.138;2023-05-10T01:36:14;12.57;;;6.60;;
76171;SDS011;64929;51.178;4.138;2023-05-10T01:38:44;17.63;;;7.03;;
76171;SDS011;64929;51.178;4.138;2023-05-10T01:41:19;15.38;;;6.95;;
76171;SDS011;64929;51.178;4.138;2023-05-10T01:46:28;14.68;;;6.90;;
76171;SDS011;64929;51.178;4.138;2023-05-10T01:49:07;12.25;;;7.47;;
76171;SDS011;64929;51.178;4.138;2023-05-10T01:51:43;15.48;;;7.03;;
76171;SDS011;64929;51.178;4.138;2023-05-10T01:54:12;17.05;;;7.25;;
76171;SDS011;64929;51.178;4.138;2023-05-10T01:56:39;14.70;;;7.75;;
76171;SDS011;64929;51.178;4.138;2023-05-10T01:59:08;12.50;;;6.45;;
76171;SDS011;64929;51.178;4.138;2023-05-10T02:01:39;13.10;;;6.90;;
76171;SDS011;64929;51.178;4.138;2023-05-10T02:04:06;16.20;;;8.18;;
76171;SDS011;64929;51.178;4.138;2023-05-10T02:06:33;16.92;;;7.55;;
76171;SDS011;64929;51.178;4.138;2023-05-10T02:09:00;12.95;;;7.82;;
76171;SDS011;64929;51.178;4.138;2023-05-10T02:11:27;15.02;;;7.70;;
76171;SDS011;64929;51.178;4.138;2023-05-10T02:13:54;17.75;;;7.70;;
76171;SDS011;64929;51.178;4.138;2023-05-10T02:16:22;17.05;;;8.15;;
76171;SDS011;64929;51.178;4.138;2023-05-10T02:18:51;15.57;;;8.32;;
76171;SDS011;64929;51.178;4.138;2023-05-10T02:21:18;19.20;;;9.52;;
76171;SDS011;64929;51.178;4.138;2023-05-10T02:23:45;21.02;;;9.27;;
76171;SDS011;64929;51.178;4.138;2023-05-10T02:26:13;45.70;;;19.05;;
76171;SDS011;64929;51.178;4.138;2023-05-10T02:28:41;63.03;;;23.60;;
76171;SDS011;64929;51.178;4.138;2023-05-10T02:31:08;57.13;;;23.15;;
76171;SDS011;64929;51.178;4.138;2023-05-10T02:33:35;51.20;;;19.60;;
76171;SDS011;64929;51.178;4.138;2023-05-10T02:36:03;46.28;;;16.95;;
76171;SDS011;64929;51.178;4.138;2023-05-10T02:38:30;43.13;;;18.05;;
76171;SDS011;64929;51.178;4.138;2023-05-10T02:40:58;43.72;;;19.33;;
76171;SDS011;64929;51.178;4.138;2023-05-10T02:43:25;43.75;;;18.55;;
76171;SDS011;64929;51.178;4.138;2023-05-10T02:45:53;43.58;;;17.83;;
76171;SDS011;64929;51.178;4.138;2023-05-10T02:48:19;46.15;;;18.70;;
76171;SDS011;64929;51.178;4.138;2023-05-10T02:50:45;42.70;;;16.92;;
76171;SDS011;64929;51.178;4.138;2023-05-10T02:53:18;40.72;;;16.58;;
76171;SDS011;64929;51.178;4.138;2023-05-10T02:55:50;34.65;;;16.08;;
76171;SDS011;64929;51.178;4.138;2023-05-10T02:58:17;36.08;;;13.60;;
76171;SDS011;64929;51.178;4.138;2023-05-10T03:00:44;30.10;;;12.40;;
76171;SDS011;64929;51.178;4.138;2023-05-10T03:03:11;22.70;;;10.75;;
76171;SDS011;64929;51.178;4.138;2023-05-10T03:05:37;22.55;;;9.60;;
76171;SDS011;64929;51.178;4.138;2023-05-10T03:08:02;23.20;;;9.88;;
76171;SDS011;64929;51.178;4.138;2023-05-10T03:10:29;23.58;;;9.82;;
76171;SDS011;64929;51.178;4.138;2023-05-10T03:15:40;24.20;;;10.95;;
76171;SDS011;64929;51.178;4.138;2023-05-10T03:18:23;24.40;;;10.57;;
76171;SDS011;64929;51.178;4.138;2023-05-10T03:21:02;21.67;;;9.63;;
76171;SDS011;64929;51.178;4.138;2023-05-10T03:23:35;23.55;;;10.10;;
76171;SDS011;64929;51.178;4.138;2023-05-10T03:26:05;25.67;;;9.68;;
76171;SDS011;64929;51.178;4.138;2023-05-10T03:28:32;24.92;;;9.90;;
76171;SDS011;64929;51.178;4.138;2023-05-10T03:31:00;23.73;;;10.00;;
76171;SDS011;64929;51.178;4.138;2023-05-10T03:33:27;23.92;;;9.98;;
76171;SDS011;64929;51.178;4.138;2023-05-10T03:35:52;22.90;;;10.45;;
76171;SDS011;64929;51.178;4.138;2023-05-10T03:38:18;20.85;;;9.63;;
76171;SDS011;64929;51.178;4.138;2023-05-10T03:40:44;23.92;;;9.35;;
76171;SDS011;64929;51.178;4.138;2023-05-10T03:43:10;21.98;;;8.57;;
76171;SDS011;64929;51.178;4.138;2023-05-10T03:45:35;20.20;;;9.05;;
76171;SDS011;64929;51.178;4.138;2023-05-10T03:48:01;22.50;;;9.50;;
76171;SDS011;64929;51.178;4.138;2023-05-10T03:50:27;22.13;;;9.15;;
76171;SDS011;64929;51.178;4.138;2023-05-10T03:52:52;24.63;;;9.90;;
76171;SDS011;64929;51.178;4.138;2023-05-10T03:55:18;18.42;;;9.13;;
76171;SDS011;64929;51.178;4.138;2023-05-10T03:57:44;22.92;;;9.90;;
76171;SDS011;64929;51.178;4.138;2023-05-10T04:00:10;21.80;;;8.77;;
76171;SDS011;64929;51.178;4.138;2023-05-10T04:02:36;21.92;;;9.27;;
76171;SDS011;64929;51.178;4.138;2023-05-10T04:05:02;19.42;;;9.57;;
76171;SDS011;64929;51.178;4.138;2023-05-10T04:07:28;23.23;;;9.63;;
76171;SDS011;64929;51.178;4.138;2023-05-10T04:09:54;23.20;;;9.93;;
76171;SDS011;64929;51.178;4.138;2023-05-10T04:12:19;21.40;;;9.48;;
76171;SDS011;64929;51.178;4.138;2023-05-10T04:14:45;21.33;;;9.45;;
76171;SDS011;64929;51.178;4.138;2023-05-10T04:17:11;18.00;;;9.35;;
76171;SDS011;64929;51.178;4.138;2023-05-10T04:19:37;22.98;;;9.27;;
76171;SDS011;64929;51.178;4.138;2023-05-10T04:22:03;20.52;;;10.10;;
76171;SDS011;64929;51.178;4.138;2023-05-10T04:24:29;23.48;;;10.65;;
76171;SDS011;64929;51.178;4.138;2023-05-10T04:26:55;20.85;;;9.93;;
76171;SDS011;64929;51.178;4.138;2023-05-10T04:29:20;19.42;;;10.30;;
76171;SDS011;64929;51.178;4.138;2023-05-10T04:31:46;23.52;;;10.55;;
76171;SDS011;64929;51.178;4.138;2023-05-10T04:34:12;21.17;;;9.30;;
76171;SDS011;64929;51.178;4.138;2023-05-10T04:36:37;20.77;;;9.57;;
76171;SDS011;64929;51.178;4.138;2023-05-10T04:39:03;22.10;;;11.07;;
76171;SDS011;64929;51.178;4.138;2023-05-10T04:41:29;23.98;;;11.27;;
76171;SDS011;64929;51.178;4.138;2023-05-10T04:43:55;21.27;;;10.35;;
76171;SDS011;64929;51.178;4.138;2023-05-10T04:46:21;23.55;;;11.25;;
76171;SDS011;64929;51.178;4.138;2023-05-10T04:48:46;24.98;;;11.63;;
76171;SDS011;64929;51.178;4.138;2023-05-10T04:51:12;22.90;;;10.30;;
76171;SDS011;64929;51.178;4.138;2023-05-10T04:53:38;22.33;;;10.00;;
76171;SDS011;64929;51.178;4.138;2023-05-10T04:56:04;25.15;;;11.02;;
76171;SDS011;64929;51.178;4.138;2023-05-10T04:58:30;20.75;;;10.15;;
76171;SDS011;64929;51.178;4.138;2023-05-10T05:00:56;23.25;;;10.70;;
76171;SDS011;64929;51.178;4.138;2023-05-10T05:03:21;21.50;;;10.85;;
76171;SDS011;64929;51.178;4.138;2023-05-10T05:05:47;24.40;;;11.55;;
76171;SDS011;64929;51.178;4.138;2023-05-10T05:08:13;23.02;;;11.00;;
76171;SDS011;64929;51.178;4.138;2023-05-10T05:10:39;24.10;;;11.15;;
76171;SDS011;64929;51.178;4.138;2023-05-10T05:13:05;19.90;;;10.02;;
76171;SDS011;64929;51.178;4.138;2023-05-10T05:15:30;21.65;;;10.18;;
76171;SDS011;64929;51.178;4.138;2023-05-10T05:17:56;19.92;;;9.45;;
76171;SDS011;64929;51.178;4.138;2023-05-10T05:20:22;21.52;;;10.88;;
76171;SDS011;64929;51.178;4.138;2023-05-10T05:22:48;19.08;;;9.98;;
76171;SDS011;64929;51.178;4.138;2023-05-10T05:25:14;20.52;;;10.15;;
76171;SDS011;64929;51.178;4.138;2023-05-10T05:27:40;20.48;;;10.13;;
76171;SDS011;64929;51.178;4.138;2023-05-10T05:30:06;19.23;;;9.23;;
76171;SDS011;64929;51.178;4.138;2023-05-10T05:32:32;23.83;;;11.20;;
76171;SDS011;64929;51.178;4.138;2023-05-10T05:34:58;17.33;;;9.27;;
76171;SDS011;64929;51.178;4.138;2023-05-10T05:37:24;17.05;;;9.48;;
76171;SDS011;64929;51.178;4.138;2023-05-10T05:39:50;20.40;;;10.07;;
76171;SDS011;64929;51.178;4.138;2023-05-10T05:42:16;17.77;;;10.00;;
76171;SDS011;64929;51.178;4.138;2023-05-10T05:44:43;19.35;;;9.88;;
76171;SDS011;64929;51.178;4.138;2023-05-10T05:47:09;18.73;;;10.25;;
76171;SDS011;64929;51.178;4.138;2023-05-10T05:49:35;18.77;;;9.50;;
76171;SDS011;64929;51.178;4.138;2023-05-10T05:52:02;21.23;;;10.30;;
76171;SDS011;64929;51.178;4.138;2023-05-10T05:54:28;22.88;;;11.05;;
76171;SDS011;64929;51.178;4.138;2023-05-10T05:56:58;20.50;;;10.10;;
76171;SDS011;64929;51.178;4.138;2023-05-10T05:59:24;18.80;;;10.50;;
76171;SDS011;64929;51.178;4.138;2023-05-10T06:01:50;19.65;;;10.65;;
76171;SDS011;64929;51.178;4.138;2023-05-10T06:04:16;19.00;;;10.18;;
76171;SDS011;64929;51.178;4.138;2023-05-10T06:06:42;22.33;;;9.90;;
76171;SDS011;64929;51.178;4.138;2023-05-10T06:09:08;23.17;;;10.55;;
76171;SDS011;64929;51.178;4.138;2023-05-10T06:11:34;23.80;;;12.18;;
76171;SDS011;64929;51.178;4.138;2023-05-10T06:14:00;31.85;;;15.15;;
76171;SDS011;64929;51.178;4.138;2023-05-10T06:16:26;31.63;;;15.70;;
76171;SDS011;64929;51.178;4.138;2023-05-10T06:18:52;34.22;;;15.82;;
76171;SDS011;64929;51.178;4.138;2023-05-10T06:21:18;31.85;;;15.35;;
76171;SDS011;64929;51.178;4.138;2023-05-10T06:23:44;34.05;;;16.02;;
76171;SDS011;64929;51.178;4.138;2023-05-10T06:26:10;32.25;;;14.52;;
76171;SDS011;64929;51.178;4.138;2023-05-10T06:28:35;32.67;;;15.20;;
76171;SDS011;64929;51.178;4.138;2023-05-10T06:31:03;33.08;;;14.50;;
76171;SDS011;64929;51.178;4.138;2023-05-10T06:33:29;31.98;;;15.10;;
76171;SDS011;64929;51.178;4.138;2023-05-10T06:35:55;33.63;;;15.43;;
76171;SDS011;64929;51.178;4.138;2023-05-10T06:38:21;29.55;;;14.02;;
76171;SDS011;64929;51.178;4.138;2023-05-10T06:40:46;27.75;;;14.20;;
76171;SDS011;64929;51.178;4.138;2023-05-10T06:43:12;31.88;;;13.98;;
76171;SDS011;64929;51.178;4.138;2023-05-10T06:45:38;32.42;;;13.75;;
76171;SDS011;64929;51.178;4.138;2023-05-10T06:48:04;29.58;;;14.32;;
76171;SDS011;64929;51.178;4.138;2023-05-10T06:50:30;24.90;;;13.32;;
76171;SDS011;64929;51.178;4.138;2023-05-10T06:52:55;26.13;;;13.32;;
76171;SDS011;64929;51.178;4.138;2023-05-10T06:55:21;26.20;;;13.15;;
76171;SDS011;64929;51.178;4.138;2023-05-10T06:57:47;22.88;;;11.80;;
76171;SDS011;64929;51.178;4.138;2023-05-10T07:00:13;22.50;;;11.70;;
76171;SDS011;64929;51.178;4.138;2023-05-10T07:02:39;21.13;;;10.90;;
76171;SDS011;64929;51.178;4.138;2023-05-10T07:05:05;21.38;;;10.60;;
76171;SDS011;64929;51.178;4.138;2023-05-10T07:07:31;24.27;;;11.63;;
76171;SDS011;64929;51.178;4.138;2023-05-10T07:09:57;23.73;;;12.60;;
76171;SDS011;64929;51.178;4.138;2023-05-10T07:12:23;26.35;;;12.55;;
76171;SDS011;64929;51.178;4.138;2023-05-10T07:14:49;27.45;;;13.32;;
76171;SDS011;64929;51.178;4.138;2023-05-10T07:17:15;29.30;;;14.15;;
76171;SDS011;64929;51.178;4.138;2023-05-10T07:19:40;23.85;;;11.57;;
76171;SDS011;64929;51.178;4.138;2023-05-10T07:22:06;23.70;;;11.63;;
76171;SDS011;64929;51.178;4.138;2023-05-10T07:24:32;23.50;;;11.60;;
76171;SDS011;64929;51.178;4.138;2023-05-10T07:26:58;23.88;;;11.30;;
76171;SDS011;64929;51.178;4.138;2023-05-10T07:29:24;21.42;;;11.48;;
76171;SDS011;64929;51.178;4.138;2023-05-10T07:31:49;23.70;;;10.90;;
76171;SDS011;64929;51.178;4.138;2023-05-10T07:34:15;22.92;;;11.52;;
76171;SDS011;64929;51.178;4.138;2023-05-10T07:36:41;21.25;;;11.23;;
76171;SDS011;64929;51.178;4.138;2023-05-10T07:39:07;20.98;;;10.15;;
76171;SDS011;64929;51.178;4.138;2023-05-10T07:41:32;22.25;;;10.75;;
76171;SDS011;64929;51.178;4.138;2023-05-10T07:43:58;17.75;;;9.52;;
76171;SDS011;64929;51.178;4.138;2023-05-10T07:46:24;20.33;;;10.07;;
76171;SDS011;64929;51.178;4.138;2023-05-10T07:48:49;13.68;;;8.60;;
76171;SDS011;64929;51.178;4.138;2023-05-10T07:51:15;13.38;;;7.15;;
76171;SDS011;64929;51.178;4.138;2023-05-10T07:53:41;12.00;;;6.63;;
76171;SDS011;64929;51.178;4.138;2023-05-10T07:56:26;13.55;;;7.57;;
76171;SDS011;64929;51.178;4.138;2023-05-10T07:58:58;13.88;;;8.25;;
76171;SDS011;64929;51.178;4.138;2023-05-10T08:03:50;14.88;;;8.63;;
76171;SDS011;64929;51.178;4.138;2023-05-10T08:06:18;20.27;;;11.23;;
76171;SDS011;64929;51.178;4.138;2023-05-10T08:08:45;21.60;;;10.75;;
76171;SDS011;64929;51.178;4.138;2023-05-10T08:11:14;15.63;;;9.65;;
76171;SDS011;64929;51.178;4.138;2023-05-10T08:13:41;20.23;;;10.02;;
76171;SDS011;64929;51.178;4.138;2023-05-10T08:16:07;22.25;;;11.23;;
76171;SDS011;64929;51.178;4.138;2023-05-10T08:18:33;18.75;;;10.25;;
76171;SDS011;64929;51.178;4.138;2023-05-10T08:20:58;18.45;;;10.13;;
76171;SDS011;64929;51.178;4.138;2023-05-10T08:23:24;21.05;;;10.95;;
76171;SDS011;64929;51.178;4.138;2023-05-10T08:25:50;28.17;;;13.45;;
76171;SDS011;64929;51.178;4.138;2023-05-10T08:28:15;44.80;;;19.85;;
76171;SDS011;64929;51.178;4.138;2023-05-10T08:30:41;46.33;;;20.40;;
76171;SDS011;64929;51.178;4.138;2023-05-10T08:33:07;38.38;;;16.92;;
76171;SDS011;64929;51.178;4.138;2023-05-10T08:35:32;22.80;;;11.40;;
76171;SDS011;64929;51.178;4.138;2023-05-10T08:37:59;18.15;;;8.38;;
76171;SDS011;64929;51.178;4.138;2023-05-10T08:40:25;14.55;;;6.68;;
76171;SDS011;64929;51.178;4.138;2023-05-10T08:42:55;8.73;;;4.97;;
76171;SDS011;64929;51.178;4.138;2023-05-10T08:45:31;9.85;;;5.75;;
76171;SDS011;64929;51.178;4.138;2023-05-10T08:48:01;8.88;;;5.57;;
76171;SDS011;64929;51.178;4.138;2023-05-10T08:50:30;9.02;;;5.35;;
76171;SDS011;64929;51.178;4.138;2023-05-10T08:52:57;8.07;;;4.68;;
76171;SDS011;64929;51.178;4.138;2023-05-10T08:55:26;6.00;;;3.42;;
76171;SDS011;64929;51.178;4.138;2023-05-10T08:57:52;5.20;;;3.45;;
76171;SDS011;64929;51.178;4.138;2023-05-10T09:00:18;5.00;;;3.72;;
76171;SDS011;64929;51.178;4.138;2023-05-10T09:02:45;5.47;;;3.88;;
76171;SDS011;64929;51.178;4.138;2023-05-10T09:05:11;6.45;;;4.57;;
76171;SDS011;64929;51.178;4.138;2023-05-10T09:07:37;8.75;;;5.57;;
76171;SDS011;64929;51.178;4.138;2023-05-10T09:10:03;9.48;;;5.47;;
76171;SDS011;64929;51.178;4.138;2023-05-10T09:12:30;9.05;;;4.80;;
76171;SDS011;64929;51.178;4.138;2023-05-10T09:14:56;7.57;;;5.22;;
76171;SDS011;64929;51.178;4.138;2023-05-10T09:17:24;8.30;;;5.05;;
76171;SDS011;64929;51.178;4.138;2023-05-10T09:20:02;12.80;;;7.53;;
76171;SDS011;64929;51.178;4.138;2023-05-10T09:22:31;13.50;;;7.57;;
76171;SDS011;64929;51.178;4.138;2023-05-10T09:27:37;15.55;;;8.15;;
76171;SDS011;64929;51.178;4.138;2023-05-10T09:30:04;14.80;;;8.80;;
76171;SDS011;64929;51.178;4.138;2023-05-10T09:32:41;12.90;;;7.93;;
76171;SDS011;64929;51.178;4.138;2023-05-10T09:35:08;15.20;;;8.25;;
76171;SDS011;64929;51.178;4.138;2023-05-10T09:37:35;14.52;;;7.75;;
76171;SDS011;64929;51.178;4.138;2023-05-10T09:40:01;14.45;;;8.07;;
76171;SDS011;64929;51.178;4.138;2023-05-10T09:42:30;14.43;;;7.10;;
76171;SDS011;64929;51.178;4.138;2023-05-10T09:44:59;11.65;;;7.38;;
76171;SDS011;64929;51.178;4.138;2023-05-10T09:47:26;12.20;;;6.53;;
76171;SDS011;64929;51.178;4.138;2023-05-10T09:49:52;10.45;;;6.18;;
76171;SDS011;64929;51.178;4.138;2023-05-10T09:52:22;8.38;;;5.22;;
76171;SDS011;64929;51.178;4.138;2023-05-10T09:54:54;12.82;;;5.38;;
76171;SDS011;64929;51.178;4.138;2023-05-10T09:57:20;10.10;;;5.32;;
76171;SDS011;64929;51.178;4.138;2023-05-10T09:59:47;8.65;;;5.50;;
76171;SDS011;64929;51.178;4.138;2023-05-10T10:02:14;8.02;;;6.00;;
76171;SDS011;64929;51.178;4.138;2023-05-10T10:04:40;13.40;;;6.22;;
76171;SDS011;64929;51.178;4.138;2023-05-10T10:07:06;10.88;;;6.10;;
76171;SDS011;64929;51.178;4.138;2023-05-10T10:09:33;10.70;;;5.82;;
76171;SDS011;64929;51.178;4.138;2023-05-10T10:12:02;11.52;;;6.13;;
76171;SDS011;64929;51.178;4.138;2023-05-10T10:14:29;13.30;;;6.47;;
76171;SDS011;64929;51.178;4.138;2023-05-10T10:16:55;9.65;;;6.07;;
76171;SDS011;64929;51.178;4.138;2023-05-10T10:19:21;12.00;;;5.70;;
76171;SDS011;64929;51.178;4.138;2023-05-10T10:21:48;10.73;;;5.63;;
76171;SDS011;64929;51.178;4.138;2023-05-10T10:24:14;10.55;;;6.20;;
76171;SDS011;64929;51.178;4.138;2023-05-10T10:26:40;12.00;;;6.68;;
76171;SDS011;64929;51.178;4.138;2023-05-10T10:29:25;12.75;;;6.22;;
76171;SDS011;64929;51.178;4.138;2023-05-10T10:34:55;9.52;;;5.60;;
76171;SDS011;64929;51.178;4.138;2023-05-10T10:37:21;10.68;;;6.40;;
76171;SDS011;64929;51.178;4.138;2023-05-10T10:39:49;13.43;;;6.10;;
76171;SDS011;64929;51.178;4.138;2023-05-10T10:42:16;18.15;;;9.35;;
76171;SDS011;64929;51.178;4.138;2023-05-10T10:45:11;11.48;;;6.95;;
76171;SDS011;64929;51.178;4.138;2023-05-10T10:47:37;10.35;;;5.80;;
76171;SDS011;64929;51.178;4.138;2023-05-10T10:50:04;9.95;;;5.55;;
76171;SDS011;64929;51.178;4.138;2023-05-10T10:52:31;8.70;;;5.03;;
76171;SDS011;64929;51.178;4.138;2023-05-10T10:57:31;13.95;;;6.13;;
76171;SDS011;64929;51.178;4.138;2023-05-10T11:03:05;8.10;;;5.18;;
76171;SDS011;64929;51.178;4.138;2023-05-10T11:08:27;13.57;;;5.80;;
76171;SDS011;64929;51.178;4.138;2023-05-10T11:13:48;9.25;;;5.70;;
76171;SDS011;64929;51.178;4.138;2023-05-10T11:18:58;9.02;;;5.47;;
76171;SDS011;64929;51.178;4.138;2023-05-10T11:21:33;8.60;;;5.00;;
76171;SDS011;64929;51.178;4.138;2023-05-10T11:24:00;9.15;;;5.30;;
76171;SDS011;64929;51.178;4.138;2023-05-10T11:26:31;7.45;;;4.53;;
76171;SDS011;64929;51.178;4.138;2023-05-10T11:28:58;7.20;;;4.80;;
76171;SDS011;64929;51.178;4.138;2023-05-10T11:31:26;9.23;;;5.13;;
76171;SDS011;64929;51.178;4.138;2023-05-10T11:33:53;7.80;;;4.75;;
76171;SDS011;64929;51.178;4.138;2023-05-10T11:36:21;8.60;;;5.03;;
76171;SDS011;64929;51.178;4.138;2023-05-10T11:38:57;8.77;;;5.20;;
76171;SDS011;64929;51.178;4.138;2023-05-10T11:41:23;7.63;;;5.13;;
76171;SDS011;64929;51.178;4.138;2023-05-10T11:43:50;9.30;;;4.80;;
76171;SDS011;64929;51.178;4.138;2023-05-10T11:46:18;8.75;;;4.97;;
76171;SDS011;64929;51.178;4.138;2023-05-10T11:48:45;6.55;;;4.65;;
76171;SDS011;64929;51.178;4.138;2023-05-10T11:51:19;6.68;;;4.40;;
76171;SDS011;64929;51.178;4.138;2023-05-10T11:53:46;7.97;;;4.43;;
76171;SDS011;64929;51.178;4.138;2023-05-10T11:56:13;9.30;;;4.70;;
76171;SDS011;64929;51.178;4.138;2023-05-10T11:58:39;7.75;;;4.72;;
76171;SDS011;64929;51.178;4.138;2023-05-10T12:01:05;7.72;;;5.03;;
76171;SDS011;64929;51.178;4.138;2023-05-10T12:03:32;8.63;;;5.55;;
76171;SDS011;64929;51.178;4.138;2023-05-10T12:05:59;9.15;;;5.63;;
76171;SDS011;64929;51.178;4.138;2023-05-10T12:08:26;9.52;;;5.88;;
76171;SDS011;64929;51.178;4.138;2023-05-10T12:10:53;7.75;;;4.95;;
76171;SDS011;64929;51.178;4.138;2023-05-10T12:13:29;8.70;;;5.10;;
76171;SDS011;64929;51.178;4.138;2023-05-10T12:15:58;9.32;;;5.07;;
76171;SDS011;64929;51.178;4.138;2023-05-10T12:18:24;11.45;;;6.82;;
76171;SDS011;64929;51.178;4.138;2023-05-10T12:20:53;6.93;;;4.97;;
76171;SDS011;64929;51.178;4.138;2023-05-10T12:23:19;8.52;;;5.50;;
76171;SDS011;64929;51.178;4.138;2023-05-10T12:25:45;8.30;;;5.07;;
76171;SDS011;64929;51.178;4.138;2023-05-10T12:28:11;9.73;;;4.97;;
76171;SDS011;64929;51.178;4.138;2023-05-10T12:30:37;10.60;;;5.78;;
76171;SDS011;64929;51.178;4.138;2023-05-10T12:33:07;7.95;;;4.95;;
76171;SDS011;64929;51.178;4.138;2023-05-10T12:35:43;8.18;;;5.18;;
76171;SDS011;64929;51.178;4.138;2023-05-10T12:38:28;9.45;;;5.10;;
76171;SDS011;64929;51.178;4.138;2023-05-10T12:40:57;11.57;;;6.30;;
76171;SDS011;64929;51.178;4.138;2023-05-10T12:43:24;10.65;;;5.25;;
76171;SDS011;64929;51.178;4.138;2023-05-10T12:45:50;11.30;;;5.95;;
76171;SDS011;64929;51.178;4.138;2023-05-10T12:48:15;10.30;;;5.85;;
76171;SDS011;64929;51.178;4.138;2023-05-10T12:50:41;9.32;;;6.30;;
76171;SDS011;64929;51.178;4.138;2023-05-10T12:53:07;9.48;;;6.30;;
76171;SDS011;64929;51.178;4.138;2023-05-10T12:55:33;9.93;;;6.72;;
76171;SDS011;64929;51.178;4.138;2023-05-10T12:57:59;10.13;;;6.38;;
76171;SDS011;64929;51.178;4.138;2023-05-10T13:00:25;10.18;;;6.10;;
76171;SDS011;64929;51.178;4.138;2023-05-10T13:02:50;11.07;;;6.45;;
76171;SDS011;64929;51.178;4.138;2023-05-10T13:05:17;13.60;;;7.38;;
76171;SDS011;64929;51.178;4.138;2023-05-10T13:07:42;13.05;;;6.88;;
76171;SDS011;64929;51.178;4.138;2023-05-10T13:10:09;11.95;;;7.22;;
76171;SDS011;64929;51.178;4.138;2023-05-10T13:12:35;13.20;;;7.88;;
76171;SDS011;64929;51.178;4.138;2023-05-10T13:15:01;12.43;;;7.53;;
76171;SDS011;64929;51.178;4.138;2023-05-10T13:17:27;12.27;;;7.10;;
76171;SDS011;64929;51.178;4.138;2023-05-10T13:19:53;13.02;;;7.53;;
76171;SDS011;64929;51.178;4.138;2023-05-10T13:22:19;12.60;;;7.30;;
76171;SDS011;64929;51.178;4.138;2023-05-10T13:24:45;12.50;;;7.78;;
76171;SDS011;64929;51.178;4.138;2023-05-10T13:27:11;11.13;;;7.28;;
76171;SDS011;64929;51.178;4.138;2023-05-10T13:29:36;13.00;;;7.70;;
76171;SDS011;64929;51.178;4.138;2023-05-10T13:32:02;12.23;;;7.85;;
76171;SDS011;64929;51.178;4.138;2023-05-10T13:34:28;11.63;;;7.97;;
76171;SDS011;64929;51.178;4.138;2023-05-10T13:36:53;13.65;;;8.10;;
76171;SDS011;64929;51.178;4.138;2023-05-10T13:39:20;14.27;;;8.20;;
76171;SDS011;64929;51.178;4.138;2023-05-10T13:41:47;12.43;;;7.50;;
76171;SDS011;64929;51.178;4.138;2023-05-10T13:44:13;14.13;;;7.63;;
76171;SDS011;64929;51.178;4.138;2023-05-10T13:46:40;15.13;;;8.10;;
76171;SDS011;64929;51.178;4.138;2023-05-10T13:49:07;13.63;;;7.65;;
76171;SDS011;64929;51.178;4.138;2023-05-10T13:51:35;13.43;;;7.95;;
76171;SDS011;64929;51.178;4.138;2023-05-10T13:54:01;13.27;;;7.95;;
76171;SDS011;64929;51.178;4.138;2023-05-10T13:56:28;13.50;;;8.10;;
76171;SDS011;64929;51.178;4.138;2023-05-10T13:58:53;16.45;;;8.63;;
76171;SDS011;64929;51.178;4.138;2023-05-10T14:01:19;14.02;;;7.43;;
76171;SDS011;64929;51.178;4.138;2023-05-10T14:03:45;12.23;;;7.45;;
76171;SDS011;64929;51.178;4.138;2023-05-10T14:06:11;14.23;;;7.75;;
76171;SDS011;64929;51.178;4.138;2023-05-10T14:08:36;11.90;;;7.82;;
76171;SDS011;64929;51.178;4.138;2023-05-10T14:11:02;17.35;;;7.88;;
76171;SDS011;64929;51.178;4.138;2023-05-10T14:13:28;11.48;;;5.97;;
76171;SDS011;64929;51.178;4.138;2023-05-10T14:15:53;6.35;;;3.63;;
76171;SDS011;64929;51.178;4.138;2023-05-10T14:18:20;4.00;;;2.90;;
76171;SDS011;64929;51.178;4.138;2023-05-10T14:20:46;3.85;;;2.40;;
76171;SDS011;64929;51.178;4.138;2023-05-10T14:23:12;3.70;;;2.22;;
76171;SDS011;64929;51.178;4.138;2023-05-10T14:25:39;2.10;;;1.88;;
76171;SDS011;64929;51.178;4.138;2023-05-10T14:28:05;2.40;;;2.20;;
76171;SDS011;64929;51.178;4.138;2023-05-10T14:30:31;3.13;;;2.60;;
76171;SDS011;64929;51.178;4.138;2023-05-10T14:32:59;3.58;;;2.58;;
76171;SDS011;64929;51.178;4.138;2023-05-10T14:35:26;2.70;;;2.47;;
76171;SDS011;64929;51.178;4.138;2023-05-10T14:37:52;1.98;;;1.67;;
76171;SDS011;64929;51.178;4.138;2023-05-10T14:40:18;3.45;;;2.63;;
76171;SDS011;64929;51.178;4.138;2023-05-10T14:42:43;2.80;;;2.33;;
76171;SDS011;64929;51.178;4.138;2023-05-10T14:45:09;3.17;;;2.10;;
76171;SDS011;64929;51.178;4.138;2023-05-10T14:47:36;3.40;;;2.70;;
76171;SDS011;64929;51.178;4.138;2023-05-10T14:50:01;4.18;;;3.28;;
76171;SDS011;64929;51.178;4.138;2023-05-10T14:52:27;3.45;;;2.63;;
76171;SDS011;64929;51.178;4.138;2023-05-10T14:54:53;2.65;;;2.30;;
76171;SDS011;64929;51.178;4.138;2023-05-10T14:57:18;2.83;;;2.42;;
76171;SDS011;64929;51.178;4.138;2023-05-10T14:59:44;3.25;;;2.80;;
76171;SDS011;64929;51.178;4.138;2023-05-10T15:02:10;3.05;;;2.45;;
76171;SDS011;64929;51.178;4.138;2023-05-10T15:04:36;2.65;;;2.30;;
76171;SDS011;64929;51.178;4.138;2023-05-10T15:07:02;5.55;;;2.72;;
76171;SDS011;64929;51.178;4.138;2023-05-10T15:09:28;2.45;;;2.05;;
76171;SDS011;64929;51.178;4.138;2023-05-10T15:11:54;1.95;;;1.73;;
76171;SDS011;64929;51.178;4.138;2023-05-10T15:14:19;3.55;;;2.42;;